Thunderstorms From: 15-12-2017 06:00 Until: 16-12-2017 06:00 warning for: Thunderstorms Level: Yellow info button

Although rather usual in this region, locally or potentially dangerous phenomena are expected. (such as local winds, summer thunderstorms, rising streams or high waves) Be aware and pay attention to the latest weather updates, especially if you carry out activities exposed to weather or close to a stream or shoreline. 


Meteo18 Weather Cam more information Meteo18 Weather Cam


warning for Thunderstorms more information blitzortung!


Rain radar more information rain snow radar


Visit our other weather sites:

Template documentation
and downloads

And another site



Weather Underground History page Text

Daily Summary for May 25, 2017 Units:  Both    English   Metric
« Previous Day
Next Day »
Daily Weekly Monthly Yearly Custom
  High: Low: Average:
Temperature: 78.4 °F /  25.8 °C 56.5 °F /  13.6 °C 68 °F /  20 °C
Dew Point: 61.3 °F /  16.3 °C 53.8 °F /  12.1 °C 57.2 °F /  14 °C
Humidity: 91 % 49 % 70 %
Wind Speed: 18 mph /  29.0 km/h - 5.9 mph /  9.5 km/h
Wind Gust: 21 mph /  33.8 km/h - -
Wind:- - ENE
Pressure: 30.2 in /  1023.6 hPa 30.1 in /  1017.8 hPa -
Precipitation: 0 in /  0.0 mm    
Historical Graphs
 
 
Tabular Data for May 25, 2017
Time Temperature Dew Point Pressure Wind Wind Speed Wind Gust Humidity Rainfall Rate (Hourly)
00:02 62.1 °F /  16.7 °C 57.6 °F /  14.2 °C 30.2 in /  1023.6 hPa Calm   8 mph /  12.9 km/h 85 % 0 in /  0.0 mm
00:12 62.1 °F /  16.7 °C 57.6 °F /  14.2 °C 30.2 in /  1023.2 hPa NE 3 mph /  4.8 km/h 7 mph /  11.3 km/h 85 % 0 in /  0.0 mm
00:17 62.2 °F /  16.8 °C 57.7 °F /  14.3 °C 30.2 in /  1023.2 hPa Calm   7 mph /  11.3 km/h 85 % 0 in /  0.0 mm
00:22 62.2 °F /  16.8 °C 57.7 °F /  14.3 °C 30.2 in /  1023.2 hPa NE 3 mph /  4.8 km/h 7 mph /  11.3 km/h 85 % 0 in /  0.0 mm
00:32 62.2 °F /  16.8 °C 57.7 °F /  14.3 °C 30.2 in /  1023.2 hPa NW 6 mph /  9.7 km/h 8 mph /  12.9 km/h 85 % 0 in /  0.0 mm
00:37 62.2 °F /  16.8 °C 57.7 °F /  14.3 °C 30.2 in /  1023.2 hPa NNW 2 mph /  3.2 km/h 8 mph /  12.9 km/h 85 % 0 in /  0.0 mm
00:42 62.1 °F /  16.7 °C 57.6 °F /  14.2 °C 30.2 in /  1023.2 hPa North 1 mph /  1.6 km/h 8 mph /  12.9 km/h 85 % 0 in /  0.0 mm
00:47 62.1 °F /  16.7 °C 57.6 °F /  14.2 °C 30.2 in /  1023.2 hPa NNW 3 mph /  4.8 km/h 8 mph /  12.9 km/h 85 % 0 in /  0.0 mm
00:52 61.9 °F /  16.6 °C 57.4 °F /  14.1 °C 30.2 in /  1023.2 hPa NE 1 mph /  1.6 km/h 8 mph /  12.9 km/h 85 % 0 in /  0.0 mm
00:57 61.7 °F /  16.5 °C 57.4 °F /  14.1 °C 30.2 in /  1023.2 hPa NNW 2 mph /  3.2 km/h 8 mph /  12.9 km/h 86 % 0 in /  0.0 mm
01:02 61.5 °F /  16.4 °C 57 °F /  13.9 °C 30.2 in /  1023.2 hPa NNE 2 mph /  3.2 km/h 8 mph /  12.9 km/h 85 % 0 in /  0.0 mm
01:12 61.3 °F /  16.3 °C 57.2 °F /  14.0 °C 30.2 in /  1023.2 hPa NNE 4 mph /  6.4 km/h 8 mph /  12.9 km/h 86 % 0 in /  0.0 mm
01:17 61.5 °F /  16.4 °C 57 °F /  13.9 °C 30.2 in /  1023.2 hPa NE 2 mph /  3.2 km/h 7 mph /  11.3 km/h 85 % 0 in /  0.0 mm
01:22 61.7 °F /  16.5 °C 57.2 °F /  14.0 °C 30.2 in /  1023.2 hPa North 4 mph /  6.4 km/h 7 mph /  11.3 km/h 85 % 0 in /  0.0 mm
01:27 61.9 °F /  16.6 °C 57.4 °F /  14.1 °C 30.2 in /  1023.2 hPa NNE 5 mph /  8.0 km/h 11 mph /  17.7 km/h 85 % 0 in /  0.0 mm
01:32 62.1 °F /  16.7 °C 57.2 °F /  14.0 °C 30.2 in /  1023.2 hPa NE 7 mph /  11.3 km/h 11 mph /  17.7 km/h 84 % 0 in /  0.0 mm
01:37 62.2 °F /  16.8 °C 57 °F /  13.9 °C 30.2 in /  1023.2 hPa NNE 5 mph /  8.0 km/h 11 mph /  17.7 km/h 83 % 0 in /  0.0 mm
01:42 62.2 °F /  16.8 °C 57 °F /  13.9 °C 30.2 in /  1023.2 hPa NE 5 mph /  8.0 km/h 11 mph /  17.7 km/h 83 % 0 in /  0.0 mm
01:47 62.2 °F /  16.8 °C 57 °F /  13.9 °C 30.2 in /  1022.9 hPa NE 7 mph /  11.3 km/h 9 mph /  14.5 km/h 83 % 0 in /  0.0 mm
01:52 62.2 °F /  16.8 °C 56.7 °F /  13.7 °C 30.2 in /  1022.9 hPa NE 6 mph /  9.7 km/h 9 mph /  14.5 km/h 82 % 0 in /  0.0 mm
02:02 61.9 °F /  16.6 °C 56.7 °F /  13.7 °C 30.2 in /  1022.9 hPa NE 3 mph /  4.8 km/h 11 mph /  17.7 km/h 83 % 0 in /  0.0 mm
02:12 61.3 °F /  16.3 °C 56.1 °F /  13.4 °C 30.2 in /  1022.9 hPa NE 5 mph /  8.0 km/h 8 mph /  12.9 km/h 83 % 0 in /  0.0 mm
02:17 61.3 °F /  16.3 °C 56.1 °F /  13.4 °C 30.2 in /  1022.9 hPa NE 5 mph /  8.0 km/h 7 mph /  11.3 km/h 83 % 0 in /  0.0 mm
02:22 61.3 °F /  16.3 °C 56.1 °F /  13.4 °C 30.2 in /  1022.9 hPa ENE 4 mph /  6.4 km/h 7 mph /  11.3 km/h 83 % 0 in /  0.0 mm
02:32 61 °F /  16.1 °C 55.8 °F /  13.2 °C 30.2 in /  1022.9 hPa NE 3 mph /  4.8 km/h 8 mph /  12.9 km/h 83 % 0 in /  0.0 mm
02:37 60.6 °F /  15.9 °C 55.8 °F /  13.2 °C 30.2 in /  1022.9 hPa NE 4 mph /  6.4 km/h 7 mph /  11.3 km/h 84 % 0 in /  0.0 mm
02:42 60.4 °F /  15.8 °C 55.9 °F /  13.3 °C 30.2 in /  1022.6 hPa NE 3 mph /  4.8 km/h 7 mph /  11.3 km/h 85 % 0 in /  0.0 mm
02:47 60.3 °F /  15.7 °C 55.8 °F /  13.2 °C 30.2 in /  1022.6 hPa NE 2 mph /  3.2 km/h 6 mph /  9.7 km/h 85 % 0 in /  0.0 mm
02:52 60.3 °F /  15.7 °C 55.8 °F /  13.2 °C 30.2 in /  1022.6 hPa NE 2 mph /  3.2 km/h 6 mph /  9.7 km/h 85 % 0 in /  0.0 mm
02:57 60.3 °F /  15.7 °C 55.8 °F /  13.2 °C 30.2 in /  1022.6 hPa NNE 3 mph /  4.8 km/h 5 mph /  8.0 km/h 85 % 0 in /  0.0 mm
03:02 60.1 °F /  15.6 °C 55.6 °F /  13.1 °C 30.2 in /  1022.6 hPa NE 4 mph /  6.4 km/h 5 mph /  8.0 km/h 85 % 0 in /  0.0 mm
03:12 59.7 °F /  15.4 °C 55.2 °F /  12.9 °C 30.2 in /  1022.2 hPa NNE 2 mph /  3.2 km/h 5 mph /  8.0 km/h 85 % 0 in /  0.0 mm
03:17 59.5 °F /  15.3 °C 55 °F /  12.8 °C 30.2 in /  1022.2 hPa NNE 2 mph /  3.2 km/h 5 mph /  8.0 km/h 85 % 0 in /  0.0 mm
03:22 59.2 °F /  15.1 °C 55 °F /  12.8 °C 30.2 in /  1022.2 hPa North 1 mph /  1.6 km/h 5 mph /  8.0 km/h 86 % 0 in /  0.0 mm
03:32 58.6 °F /  14.8 °C 54.9 °F /  12.7 °C 30.2 in /  1022.2 hPa North 3 mph /  4.8 km/h 3 mph /  4.8 km/h 87 % 0 in /  0.0 mm
03:37 58.6 °F /  14.8 °C 54.9 °F /  12.7 °C 30.2 in /  1022.2 hPa NNE 3 mph /  4.8 km/h 5 mph /  8.0 km/h 87 % 0 in /  0.0 mm
03:42 58.5 °F /  14.7 °C 54.7 °F /  12.6 °C 30.2 in /  1022.2 hPa NNE 3 mph /  4.8 km/h 5 mph /  8.0 km/h 87 % 0 in /  0.0 mm
03:47 58.3 °F /  14.6 °C 54.5 °F /  12.5 °C 30.2 in /  1022.2 hPa North 2 mph /  3.2 km/h 6 mph /  9.7 km/h 87 % 0 in /  0.0 mm
03:52 58.3 °F /  14.6 °C 54.7 °F /  12.6 °C 30.2 in /  1022.2 hPa NE 3 mph /  4.8 km/h 6 mph /  9.7 km/h 88 % 0 in /  0.0 mm
03:57 58.1 °F /  14.5 °C 54.5 °F /  12.5 °C 30.2 in /  1022.2 hPa North 2 mph /  3.2 km/h 5 mph /  8.0 km/h 88 % 0 in /  0.0 mm
04:02 57.9 °F /  14.4 °C 54.3 °F /  12.4 °C 30.2 in /  1022.2 hPa NNE 3 mph /  4.8 km/h 5 mph /  8.0 km/h 88 % 0 in /  0.0 mm
04:12 57.9 °F /  14.4 °C 54.3 °F /  12.4 °C 30.2 in /  1022.2 hPa NE 3 mph /  4.8 km/h 5 mph /  8.0 km/h 88 % 0 in /  0.0 mm
04:17 57.9 °F /  14.4 °C 54.3 °F /  12.4 °C 30.2 in /  1022.2 hPa NNE 4 mph /  6.4 km/h 8 mph /  12.9 km/h 88 % 0 in /  0.0 mm
04:22 57.7 °F /  14.3 °C 54.5 °F /  12.5 °C 30.2 in /  1022.2 hPa NE 5 mph /  8.0 km/h 8 mph /  12.9 km/h 89 % 0 in /  0.0 mm
04:27 57.7 °F /  14.3 °C 54.1 °F /  12.3 °C 30.2 in /  1022.2 hPa NNW 5 mph /  8.0 km/h 6 mph /  9.7 km/h 88 % 0 in /  0.0 mm
04:32 57.7 °F /  14.3 °C 54.1 °F /  12.3 °C 30.2 in /  1022.2 hPa NNE 2 mph /  3.2 km/h 6 mph /  9.7 km/h 88 % 0 in /  0.0 mm
04:37 57.6 °F /  14.2 °C 54 °F /  12.2 °C 30.2 in /  1021.9 hPa North 2 mph /  3.2 km/h 7 mph /  11.3 km/h 88 % 0 in /  0.0 mm
04:42 57.6 °F /  14.2 °C 54.3 °F /  12.4 °C 30.2 in /  1021.9 hPa NNE 5 mph /  8.0 km/h 7 mph /  11.3 km/h 89 % 0 in /  0.0 mm
04:47 57.6 °F /  14.2 °C 54.3 °F /  12.4 °C 30.2 in /  1021.9 hPa NNE 2 mph /  3.2 km/h 7 mph /  11.3 km/h 89 % 0 in /  0.0 mm
04:52 57.4 °F /  14.1 °C 54.1 °F /  12.3 °C 30.2 in /  1021.9 hPa Calm   7 mph /  11.3 km/h 89 % 0 in /  0.0 mm
05:02 57.4 °F /  14.1 °C 54.1 °F /  12.3 °C 30.2 in /  1021.9 hPa North 3 mph /  4.8 km/h 6 mph /  9.7 km/h 89 % 0 in /  0.0 mm
05:12 57 °F /  13.9 °C 54.1 °F /  12.3 °C 30.2 in /  1021.9 hPa NNE 3 mph /  4.8 km/h 7 mph /  11.3 km/h 90 % 0 in /  0.0 mm
05:17 57.4 °F /  14.1 °C 54.5 °F /  12.5 °C 30.2 in /  1021.9 hPa NNE 2 mph /  3.2 km/h 7 mph /  11.3 km/h 90 % 0 in /  0.0 mm
05:22 57.4 °F /  14.1 °C 54.1 °F /  12.3 °C 30.2 in /  1021.9 hPa NNE 3 mph /  4.8 km/h 7 mph /  11.3 km/h 89 % 0 in /  0.0 mm
05:32 57.4 °F /  14.1 °C 54.1 °F /  12.3 °C 30.2 in /  1021.9 hPa Calm   5 mph /  8.0 km/h 89 % 0 in /  0.0 mm
05:42 57 °F /  13.9 °C 53.8 °F /  12.1 °C 30.2 in /  1021.9 hPa NNE 1 mph /  1.6 km/h 4 mph /  6.4 km/h 89 % 0 in /  0.0 mm
05:47 56.8 °F /  13.8 °C 54 °F /  12.2 °C 30.2 in /  1021.9 hPa NNE 1 mph /  1.6 km/h 4 mph /  6.4 km/h 90 % 0 in /  0.0 mm
05:52 56.8 °F /  13.8 °C 54 °F /  12.2 °C 30.2 in /  1021.6 hPa North 1 mph /  1.6 km/h 4 mph /  6.4 km/h 90 % 0 in /  0.0 mm
06:02 56.7 °F /  13.7 °C 53.8 °F /  12.1 °C 30.2 in /  1021.6 hPa NE 1 mph /  1.6 km/h 3 mph /  4.8 km/h 90 % 0 in /  0.0 mm
06:12 56.5 °F /  13.6 °C 54 °F /  12.2 °C 30.2 in /  1021.6 hPa NE 4 mph /  6.4 km/h 4 mph /  6.4 km/h 91 % 0 in /  0.0 mm
06:17 56.7 °F /  13.7 °C 54.1 °F /  12.3 °C 30.2 in /  1021.9 hPa NNE 3 mph /  4.8 km/h 4 mph /  6.4 km/h 91 % 0 in /  0.0 mm
06:22 56.7 °F /  13.7 °C 53.8 °F /  12.1 °C 30.2 in /  1021.9 hPa NNE 5 mph /  8.0 km/h 5 mph /  8.0 km/h 90 % 0 in /  0.0 mm
06:32 57 °F /  13.9 °C 54.1 °F /  12.3 °C 30.2 in /  1021.9 hPa NNE 4 mph /  6.4 km/h 6 mph /  9.7 km/h 90 % 0 in /  0.0 mm
06:37 57.6 °F /  14.2 °C 54.7 °F /  12.6 °C 30.2 in /  1021.9 hPa NNE 5 mph /  8.0 km/h 6 mph /  9.7 km/h 90 % 0 in /  0.0 mm
06:42 58.3 °F /  14.6 °C 55 °F /  12.8 °C 30.2 in /  1021.9 hPa North 4 mph /  6.4 km/h 6 mph /  9.7 km/h 89 % 0 in /  0.0 mm
06:52 58.8 °F /  14.9 °C 55.2 °F /  12.9 °C 30.2 in /  1021.9 hPa NE 4 mph /  6.4 km/h 6 mph /  9.7 km/h 88 % 0 in /  0.0 mm
06:57 59.2 °F /  15.1 °C 55.6 °F /  13.1 °C 30.2 in /  1021.9 hPa NE 5 mph /  8.0 km/h 10 mph /  16.1 km/h 88 % 0 in /  0.0 mm
07:02 59.5 °F /  15.3 °C 55.6 °F /  13.1 °C 30.2 in /  1021.9 hPa NE 6 mph /  9.7 km/h 10 mph /  16.1 km/h 87 % 0 in /  0.0 mm
07:07 59.7 °F /  15.4 °C 55.8 °F /  13.2 °C 30.2 in /  1021.9 hPa NE 4 mph /  6.4 km/h 10 mph /  16.1 km/h 87 % 0 in /  0.0 mm
07:12 59.9 °F /  15.5 °C 55.9 °F /  13.3 °C 30.2 in /  1021.9 hPa NE 7 mph /  11.3 km/h 10 mph /  16.1 km/h 87 % 0 in /  0.0 mm
07:17 60.1 °F /  15.6 °C 56.1 °F /  13.4 °C 30.2 in /  1021.9 hPa NNE 6 mph /  9.7 km/h 10 mph /  16.1 km/h 87 % 0 in /  0.0 mm
07:22 60.3 °F /  15.7 °C 56.1 °F /  13.4 °C 30.2 in /  1021.9 hPa NNE 7 mph /  11.3 km/h 11 mph /  17.7 km/h 86 % 0 in /  0.0 mm
07:32 60.6 °F /  15.9 °C 56.5 °F /  13.6 °C 30.2 in /  1022.2 hPa NE 5 mph /  8.0 km/h 11 mph /  17.7 km/h 86 % 0 in /  0.0 mm
07:37 61 °F /  16.1 °C 56.5 °F /  13.6 °C 30.2 in /  1022.2 hPa North 5 mph /  8.0 km/h 11 mph /  17.7 km/h 85 % 0 in /  0.0 mm
07:42 61.2 °F /  16.2 °C 56.7 °F /  13.7 °C 30.2 in /  1022.2 hPa NNE 7 mph /  11.3 km/h 13 mph /  20.9 km/h 85 % 0 in /  0.0 mm
07:52 61.3 °F /  16.3 °C 56.8 °F /  13.8 °C 30.2 in /  1022.2 hPa NE 7 mph /  11.3 km/h 10 mph /  16.1 km/h 85 % 0 in /  0.0 mm
07:57 61.3 °F /  16.3 °C 56.5 °F /  13.6 °C 30.2 in /  1022.2 hPa NE 7 mph /  11.3 km/h 10 mph /  16.1 km/h 84 % 0 in /  0.0 mm
08:02 61.3 °F /  16.3 °C 56.5 °F /  13.6 °C 30.2 in /  1022.2 hPa ENE 6 mph /  9.7 km/h 11 mph /  17.7 km/h 84 % 0 in /  0.0 mm
08:12 61.5 °F /  16.4 °C 56.7 °F /  13.7 °C 30.2 in /  1022.2 hPa ENE 6 mph /  9.7 km/h 11 mph /  17.7 km/h 84 % 0 in /  0.0 mm
08:17 61.9 °F /  16.6 °C 56.7 °F /  13.7 °C 30.2 in /  1022.2 hPa NE 2 mph /  3.2 km/h 11 mph /  17.7 km/h 83 % 0 in /  0.0 mm
08:22 62.1 °F /  16.7 °C 56.8 °F /  13.8 °C 30.2 in /  1022.2 hPa NE 4 mph /  6.4 km/h 10 mph /  16.1 km/h 83 % 0 in /  0.0 mm
08:32 62.6 °F /  17.0 °C 57 °F /  13.9 °C 30.2 in /  1022.2 hPa East 6 mph /  9.7 km/h 10 mph /  16.1 km/h 82 % 0 in /  0.0 mm
08:37 62.8 °F /  17.1 °C 56.8 °F /  13.8 °C 30.2 in /  1022.2 hPa NE 6 mph /  9.7 km/h 10 mph /  16.1 km/h 81 % 0 in /  0.0 mm
08:42 63 °F /  17.2 °C 57.4 °F /  14.1 °C 30.2 in /  1022.2 hPa ENE 7 mph /  11.3 km/h 11 mph /  17.7 km/h 82 % 0 in /  0.0 mm
08:52 63.7 °F /  17.6 °C 57.7 °F /  14.3 °C 30.2 in /  1022.2 hPa ENE 5 mph /  8.0 km/h 11 mph /  17.7 km/h 81 % 0 in /  0.0 mm
08:57 63.9 °F /  17.7 °C 57.6 °F /  14.2 °C 30.2 in /  1022.2 hPa ENE 2 mph /  3.2 km/h 11 mph /  17.7 km/h 80 % 0 in /  0.0 mm
09:02 64.2 °F /  17.9 °C 57.9 °F /  14.4 °C 30.2 in /  1022.2 hPa ENE 4 mph /  6.4 km/h 11 mph /  17.7 km/h 80 % 0 in /  0.0 mm
09:07 64.8 °F /  18.2 °C 58.1 °F /  14.5 °C 30.2 in /  1022.2 hPa ENE 4 mph /  6.4 km/h 11 mph /  17.7 km/h 79 % 0 in /  0.0 mm
09:12 64.9 °F /  18.3 °C 57.9 °F /  14.4 °C 30.2 in /  1022.2 hPa NNE 4 mph /  6.4 km/h 9 mph /  14.5 km/h 78 % 0 in /  0.0 mm
09:17 65.1 °F /  18.4 °C 58.1 °F /  14.5 °C 30.2 in /  1022.2 hPa ENE 3 mph /  4.8 km/h 9 mph /  14.5 km/h 78 % 0 in /  0.0 mm
09:22 65.5 °F /  18.6 °C 58.5 °F /  14.7 °C 30.2 in /  1022.2 hPa NNE 5 mph /  8.0 km/h 10 mph /  16.1 km/h 78 % 0 in /  0.0 mm
09:32 65.8 °F /  18.8 °C 58.1 °F /  14.5 °C 30.2 in /  1022.2 hPa NE 8 mph /  12.9 km/h 12 mph /  19.3 km/h 76 % 0 in /  0.0 mm
09:42 66.6 °F /  19.2 °C 58.5 °F /  14.7 °C 30.2 in /  1022.2 hPa ENE 6 mph /  9.7 km/h 12 mph /  19.3 km/h 75 % 0 in /  0.0 mm
09:47 66.9 °F /  19.4 °C 58.8 °F /  14.9 °C 30.2 in /  1022.2 hPa NE 5 mph /  8.0 km/h 12 mph /  19.3 km/h 75 % 0 in /  0.0 mm
09:52 67.3 °F /  19.6 °C 58.6 °F /  14.8 °C 30.2 in /  1022.2 hPa NE 5 mph /  8.0 km/h 12 mph /  19.3 km/h 74 % 0 in /  0.0 mm
10:02 67.8 °F /  19.9 °C 58.5 °F /  14.7 °C 30.2 in /  1022.2 hPa ENE 5 mph /  8.0 km/h 11 mph /  17.7 km/h 72 % 0 in /  0.0 mm
10:12 68.4 °F /  20.2 °C 59 °F /  15.0 °C 30.2 in /  1022.2 hPa NE 3 mph /  4.8 km/h 12 mph /  19.3 km/h 72 % 0 in /  0.0 mm
10:17 68.4 °F /  20.2 °C 58.6 °F /  14.8 °C 30.2 in /  1022.2 hPa NNE 5 mph /  8.0 km/h 12 mph /  19.3 km/h 71 % 0 in /  0.0 mm
10:22 68.7 °F /  20.4 °C 58.5 °F /  14.7 °C 30.2 in /  1022.2 hPa NE 3 mph /  4.8 km/h 12 mph /  19.3 km/h 70 % 0 in /  0.0 mm
10:27 68.7 °F /  20.4 °C 59 °F /  15.0 °C 30.2 in /  1022.2 hPa NNE 10 mph /  16.1 km/h 12 mph /  19.3 km/h 71 % 0 in /  0.0 mm
10:32 69.1 °F /  20.6 °C 59.4 °F /  15.2 °C 30.2 in /  1021.9 hPa NE 9 mph /  14.5 km/h 12 mph /  19.3 km/h 71 % 0 in /  0.0 mm
10:42 69.4 °F /  20.8 °C 58.8 °F /  14.9 °C 30.2 in /  1021.9 hPa East 7 mph /  11.3 km/h 14 mph /  22.5 km/h 69 % 0 in /  0.0 mm
10:52 70 °F /  21.1 °C 59 °F /  15.0 °C 30.2 in /  1021.9 hPa NE 6 mph /  9.7 km/h 12 mph /  19.3 km/h 68 % 0 in /  0.0 mm
10:57 70 °F /  21.1 °C 58.5 °F /  14.7 °C 30.2 in /  1021.9 hPa East 5 mph /  8.0 km/h 12 mph /  19.3 km/h 67 % 0 in /  0.0 mm
11:02 70.5 °F /  21.4 °C 59.9 °F /  15.5 °C 30.2 in /  1021.9 hPa NE 7 mph /  11.3 km/h 14 mph /  22.5 km/h 69 % 0 in /  0.0 mm
11:12 71.1 °F /  21.7 °C 58.3 °F /  14.6 °C 30.2 in /  1021.9 hPa ENE 7 mph /  11.3 km/h 14 mph /  22.5 km/h 64 % 0 in /  0.0 mm
11:17 71.2 °F /  21.8 °C 57.9 °F /  14.4 °C 30.2 in /  1021.6 hPa NNW 8 mph /  12.9 km/h 14 mph /  22.5 km/h 63 % 0 in /  0.0 mm
11:22 71.2 °F /  21.8 °C 57 °F /  13.9 °C 30.2 in /  1021.6 hPa ENE 12 mph /  19.3 km/h 14 mph /  22.5 km/h 61 % 0 in /  0.0 mm
11:32 71.8 °F /  22.1 °C 56.7 °F /  13.7 °C 30.2 in /  1021.6 hPa NE 14 mph /  22.5 km/h 18 mph /  29.0 km/h 59 % 0 in /  0.0 mm
11:42 72.3 °F /  22.4 °C 56.3 °F /  13.5 °C 30.2 in /  1021.6 hPa ENE 10 mph /  16.1 km/h 18 mph /  29.0 km/h 57 % 0 in /  0.0 mm
11:47 72.3 °F /  22.4 °C 55.8 °F /  13.2 °C 30.2 in /  1021.6 hPa ENE 9 mph /  14.5 km/h 18 mph /  29.0 km/h 56 % 0 in /  0.0 mm
11:52 72.5 °F /  22.5 °C 57.4 °F /  14.1 °C 30.2 in /  1021.6 hPa NNE 12 mph /  19.3 km/h 19 mph /  30.6 km/h 59 % 0 in /  0.0 mm
11:57 72.7 °F /  22.6 °C 56.1 °F /  13.4 °C 30.2 in /  1021.6 hPa ENE 11 mph /  17.7 km/h 19 mph /  30.6 km/h 56 % 0 in /  0.0 mm
12:02 72.7 °F /  22.6 °C 57.6 °F /  14.2 °C 30.2 in /  1021.6 hPa ENE 9 mph /  14.5 km/h 19 mph /  30.6 km/h 59 % 0 in /  0.0 mm
12:12 72.9 °F /  22.7 °C 58.1 °F /  14.5 °C 30.2 in /  1021.6 hPa NE 6 mph /  9.7 km/h 18 mph /  29.0 km/h 60 % 0 in /  0.0 mm
12:17 73.2 °F /  22.9 °C 58.5 °F /  14.7 °C 30.2 in /  1021.6 hPa NE 10 mph /  16.1 km/h 18 mph /  29.0 km/h 60 % 0 in /  0.0 mm
12:22 73.4 °F /  23.0 °C 58.6 °F /  14.8 °C 30.2 in /  1021.6 hPa NNE 14 mph /  22.5 km/h 17 mph /  27.4 km/h 60 % 0 in /  0.0 mm
12:32 73.2 °F /  22.9 °C 58.5 °F /  14.7 °C 30.2 in /  1021.6 hPa NE 8 mph /  12.9 km/h 17 mph /  27.4 km/h 60 % 0 in /  0.0 mm
12:42 73.6 °F /  23.1 °C 57.9 °F /  14.4 °C 30.2 in /  1021.2 hPa NE 11 mph /  17.7 km/h 18 mph /  29.0 km/h 58 % 0 in /  0.0 mm
12:47 73.6 °F /  23.1 °C 57.4 °F /  14.1 °C 30.2 in /  1021.2 hPa ENE 15 mph /  24.1 km/h 18 mph /  29.0 km/h 57 % 0 in /  0.0 mm
12:52 73.9 °F /  23.3 °C 58.6 °F /  14.8 °C 30.2 in /  1021.2 hPa NE 5 mph /  8.0 km/h 19 mph /  30.6 km/h 59 % 0 in /  0.0 mm
13:02 73.9 °F /  23.3 °C 57.2 °F /  14.0 °C 30.2 in /  1021.2 hPa NE 10 mph /  16.1 km/h 19 mph /  30.6 km/h 56 % 0 in /  0.0 mm
13:07 73.9 °F /  23.3 °C 57.7 °F /  14.3 °C 30.2 in /  1021.2 hPa East 8 mph /  12.9 km/h 15 mph /  24.1 km/h 57 % 0 in /  0.0 mm
13:17 74.5 °F /  23.6 °C 57.7 °F /  14.3 °C 30.2 in /  1020.9 hPa ENE 14 mph /  22.5 km/h 15 mph /  24.1 km/h 56 % 0 in /  0.0 mm
13:22 74.8 °F /  23.8 °C 58.6 °F /  14.8 °C 30.2 in /  1020.9 hPa ENE 6 mph /  9.7 km/h 17 mph /  27.4 km/h 57 % 0 in /  0.0 mm
13:32 74.7 °F /  23.7 °C 57.9 °F /  14.4 °C 30.2 in /  1020.9 hPa NE 11 mph /  17.7 km/h 17 mph /  27.4 km/h 56 % 0 in /  0.0 mm
13:37 74.7 °F /  23.7 °C 57.4 °F /  14.1 °C 30.2 in /  1020.9 hPa NNE 8 mph /  12.9 km/h 17 mph /  27.4 km/h 55 % 0 in /  0.0 mm
13:42 75 °F /  23.9 °C 58.3 °F /  14.6 °C 30.2 in /  1020.9 hPa NE 8 mph /  12.9 km/h 17 mph /  27.4 km/h 56 % 0 in /  0.0 mm
13:52 74.8 °F /  23.8 °C 59.5 °F /  15.3 °C 30.2 in /  1020.9 hPa NNE 9 mph /  14.5 km/h 16 mph /  25.7 km/h 59 % 0 in /  0.0 mm
13:57 75 °F /  23.9 °C 58.3 °F /  14.6 °C 30.1 in /  1020.5 hPa NNE 9 mph /  14.5 km/h 19 mph /  30.6 km/h 56 % 0 in /  0.0 mm
14:02 75 °F /  23.9 °C 58.3 °F /  14.6 °C 30.1 in /  1020.5 hPa East 12 mph /  19.3 km/h 19 mph /  30.6 km/h 56 % 0 in /  0.0 mm
14:12 75.9 °F /  24.4 °C 57.6 °F /  14.2 °C 30.1 in /  1020.5 hPa NNE 10 mph /  16.1 km/h 19 mph /  30.6 km/h 53 % 0 in /  0.0 mm
14:17 75.7 °F /  24.3 °C 56.8 °F /  13.8 °C 30.1 in /  1020.5 hPa NNE 10 mph /  16.1 km/h 17 mph /  27.4 km/h 52 % 0 in /  0.0 mm
14:22 76.1 °F /  24.5 °C 58.3 °F /  14.6 °C 30.1 in /  1020.2 hPa NNE 6 mph /  9.7 km/h 17 mph /  27.4 km/h 54 % 0 in /  0.0 mm
14:32 76.5 °F /  24.7 °C 58.6 °F /  14.8 °C 30.1 in /  1020.2 hPa NE 9 mph /  14.5 km/h 17 mph /  27.4 km/h 54 % 0 in /  0.0 mm
14:37 76.5 °F /  24.7 °C 59.2 °F /  15.1 °C 30.1 in /  1020.2 hPa NE 14 mph /  22.5 km/h 17 mph /  27.4 km/h 55 % 0 in /  0.0 mm
14:42 76.3 °F /  24.6 °C 57.4 °F /  14.1 °C 30.1 in /  1020.2 hPa ESE 8 mph /  12.9 km/h 17 mph /  27.4 km/h 52 % 0 in /  0.0 mm
14:52 76.6 °F /  24.8 °C 58.3 °F /  14.6 °C 30.1 in /  1020.2 hPa NNE 18 mph /  29.0 km/h 18 mph /  29.0 km/h 53 % 0 in /  0.0 mm
14:57 76.5 °F /  24.7 °C 57.6 °F /  14.2 °C 30.1 in /  1019.9 hPa NNE 6 mph /  9.7 km/h 21 mph /  33.8 km/h 52 % 0 in /  0.0 mm
15:02 76.5 °F /  24.7 °C 57.6 °F /  14.2 °C 30.1 in /  1019.9 hPa ENE 6 mph /  9.7 km/h 21 mph /  33.8 km/h 52 % 0 in /  0.0 mm
15:12 76.6 °F /  24.8 °C 58.3 °F /  14.6 °C 30.1 in /  1019.9 hPa NE 7 mph /  11.3 km/h 21 mph /  33.8 km/h 53 % 0 in /  0.0 mm
15:17 76.6 °F /  24.8 °C 57.7 °F /  14.3 °C 30.1 in /  1019.9 hPa NE 9 mph /  14.5 km/h 18 mph /  29.0 km/h 52 % 0 in /  0.0 mm
15:22 76.8 °F /  24.9 °C 57.9 °F /  14.4 °C 30.1 in /  1019.9 hPa ENE 10 mph /  16.1 km/h 18 mph /  29.0 km/h 52 % 0 in /  0.0 mm
15:27 77.2 °F /  25.1 °C 57.7 °F /  14.3 °C 30.1 in /  1019.5 hPa NNE 11 mph /  17.7 km/h 19 mph /  30.6 km/h 51 % 0 in /  0.0 mm
15:32 77.2 °F /  25.1 °C 58.3 °F /  14.6 °C 30.1 in /  1019.5 hPa East 7 mph /  11.3 km/h 19 mph /  30.6 km/h 52 % 0 in /  0.0 mm
15:37 77.4 °F /  25.2 °C 57.7 °F /  14.3 °C 30.1 in /  1019.9 hPa NE 17 mph /  27.4 km/h 19 mph /  30.6 km/h 51 % 0 in /  0.0 mm
15:42 77.5 °F /  25.3 °C 57.9 °F /  14.4 °C 30.1 in /  1019.5 hPa NE 5 mph /  8.0 km/h 19 mph /  30.6 km/h 51 % 0 in /  0.0 mm
15:52 78.1 °F /  25.6 °C 58.5 °F /  14.7 °C 30.1 in /  1019.5 hPa ENE 7 mph /  11.3 km/h 19 mph /  30.6 km/h 51 % 0 in /  0.0 mm
15:57 78.3 °F /  25.7 °C 60.3 °F /  15.7 °C 30.1 in /  1019.5 hPa ENE 4 mph /  6.4 km/h 18 mph /  29.0 km/h 54 % 0 in /  0.0 mm
16:02 78.3 °F /  25.7 °C 57.6 °F /  14.2 °C 30.1 in /  1019.5 hPa ENE 11 mph /  17.7 km/h 18 mph /  29.0 km/h 49 % 0 in /  0.0 mm
16:12 78.3 °F /  25.7 °C 59.7 °F /  15.4 °C 30.1 in /  1019.2 hPa NE 10 mph /  16.1 km/h 18 mph /  29.0 km/h 53 % 0 in /  0.0 mm
16:17 78.4 °F /  25.8 °C 58.8 °F /  14.9 °C 30.1 in /  1019.2 hPa NE 9 mph /  14.5 km/h 16 mph /  25.7 km/h 51 % 0 in /  0.0 mm
16:22 78.4 °F /  25.8 °C 60.4 °F /  15.8 °C 30.1 in /  1019.2 hPa NNE 8 mph /  12.9 km/h 16 mph /  25.7 km/h 54 % 0 in /  0.0 mm
16:32 77.7 °F /  25.4 °C 60.8 °F /  16.0 °C 30.1 in /  1018.8 hPa North 4 mph /  6.4 km/h 16 mph /  25.7 km/h 56 % 0 in /  0.0 mm
16:37 77.5 °F /  25.3 °C 59.5 °F /  15.3 °C 30.1 in /  1018.8 hPa NNE 9 mph /  14.5 km/h 18 mph /  29.0 km/h 54 % 0 in /  0.0 mm
16:42 77.7 °F /  25.4 °C 60.3 °F /  15.7 °C 30.1 in /  1018.8 hPa ENE 7 mph /  11.3 km/h 18 mph /  29.0 km/h 55 % 0 in /  0.0 mm
16:47 78.1 °F /  25.6 °C 60.6 °F /  15.9 °C 30.1 in /  1018.8 hPa NE 10 mph /  16.1 km/h 17 mph /  27.4 km/h 55 % 0 in /  0.0 mm
16:52 77.7 °F /  25.4 °C 60.3 °F /  15.7 °C 30.1 in /  1018.8 hPa NE 6 mph /  9.7 km/h 17 mph /  27.4 km/h 55 % 0 in /  0.0 mm
16:57 77.7 °F /  25.4 °C 60.3 °F /  15.7 °C 30.1 in /  1018.8 hPa NE 13 mph /  20.9 km/h 19 mph /  30.6 km/h 55 % 0 in /  0.0 mm
17:02 77.7 °F /  25.4 °C 61.3 °F /  16.3 °C 30.1 in /  1018.8 hPa NNE 12 mph /  19.3 km/h 19 mph /  30.6 km/h 57 % 0 in /  0.0 mm
17:12 77.7 °F /  25.4 °C 59.7 °F /  15.4 °C 30.1 in /  1018.8 hPa NE 15 mph /  24.1 km/h 18 mph /  29.0 km/h 54 % 0 in /  0.0 mm
17:17 78.1 °F /  25.6 °C 60.1 °F /  15.6 °C 30.1 in /  1018.8 hPa NE 9 mph /  14.5 km/h 18 mph /  29.0 km/h 54 % 0 in /  0.0 mm
17:22 78.1 °F /  25.6 °C 60.6 °F /  15.9 °C 30.1 in /  1018.8 hPa NNE 3 mph /  4.8 km/h 17 mph /  27.4 km/h 55 % 0 in /  0.0 mm
17:27 78.1 °F /  25.6 °C 60.1 °F /  15.6 °C 30.1 in /  1018.8 hPa NNE 10 mph /  16.1 km/h 17 mph /  27.4 km/h 54 % 0 in /  0.0 mm
17:32 78.1 °F /  25.6 °C 60.1 °F /  15.6 °C 30.1 in /  1018.8 hPa ENE 6 mph /  9.7 km/h 17 mph /  27.4 km/h 54 % 0 in /  0.0 mm
17:37 78.1 °F /  25.6 °C 60.1 °F /  15.6 °C 30.1 in /  1018.5 hPa NE 6 mph /  9.7 km/h 16 mph /  25.7 km/h 54 % 0 in /  0.0 mm
17:42 78.3 °F /  25.7 °C 60.8 °F /  16.0 °C 30.1 in /  1018.5 hPa NE 12 mph /  19.3 km/h 16 mph /  25.7 km/h 55 % 0 in /  0.0 mm
17:47 78.1 °F /  25.6 °C 60.6 °F /  15.9 °C 30.1 in /  1018.5 hPa NNE 9 mph /  14.5 km/h 16 mph /  25.7 km/h 55 % 0 in /  0.0 mm
17:52 78.1 °F /  25.6 °C 60.1 °F /  15.6 °C 30.1 in /  1018.5 hPa East 6 mph /  9.7 km/h 16 mph /  25.7 km/h 54 % 0 in /  0.0 mm
17:57 78.3 °F /  25.7 °C 60.8 °F /  16.0 °C 30.1 in /  1018.5 hPa North 9 mph /  14.5 km/h 16 mph /  25.7 km/h 55 % 0 in /  0.0 mm
18:02 78.1 °F /  25.6 °C 60.6 °F /  15.9 °C 30.1 in /  1018.5 hPa NNE 8 mph /  12.9 km/h 16 mph /  25.7 km/h 55 % 0 in /  0.0 mm
18:12 77.7 °F /  25.4 °C 60.3 °F /  15.7 °C 30.1 in /  1018.2 hPa NNE 8 mph /  12.9 km/h 15 mph /  24.1 km/h 55 % 0 in /  0.0 mm
18:17 77.7 °F /  25.4 °C 60.8 °F /  16.0 °C 30.1 in /  1018.5 hPa NE 7 mph /  11.3 km/h 18 mph /  29.0 km/h 56 % 0 in /  0.0 mm
18:22 77.9 °F /  25.5 °C 61 °F /  16.1 °C 30.1 in /  1018.5 hPa East 10 mph /  16.1 km/h 17 mph /  27.4 km/h 56 % 0 in /  0.0 mm
18:32 77.7 °F /  25.4 °C 60.8 °F /  16.0 °C 30.1 in /  1018.2 hPa NE 7 mph /  11.3 km/h 17 mph /  27.4 km/h 56 % 0 in /  0.0 mm
18:42 77.7 °F /  25.4 °C 60.8 °F /  16.0 °C 30.1 in /  1018.2 hPa East 6 mph /  9.7 km/h 15 mph /  24.1 km/h 56 % 0 in /  0.0 mm
18:47 77.9 °F /  25.5 °C 60.4 °F /  15.8 °C 30.1 in /  1018.2 hPa ENE 6 mph /  9.7 km/h 15 mph /  24.1 km/h 55 % 0 in /  0.0 mm
19:02 77.5 °F /  25.3 °C 60.1 °F /  15.6 °C 30.1 in /  1017.8 hPa NNE 8 mph /  12.9 km/h 16 mph /  25.7 km/h 55 % 0 in /  0.0 mm
19:12 77.4 °F /  25.2 °C 61 °F /  16.1 °C 30.1 in /  1017.8 hPa NNE 7 mph /  11.3 km/h 15 mph /  24.1 km/h 57 % 0 in /  0.0 mm
19:17 77.2 °F /  25.1 °C 60.8 °F /  16.0 °C 30.1 in /  1017.8 hPa NE 8 mph /  12.9 km/h 15 mph /  24.1 km/h 57 % 0 in /  0.0 mm
19:22 77 °F /  25.0 °C 60.6 °F /  15.9 °C 30.1 in /  1017.8 hPa NE 9 mph /  14.5 km/h 15 mph /  24.1 km/h 57 % 0 in /  0.0 mm
19:32 76.6 °F /  24.8 °C 60.3 °F /  15.7 °C 30.1 in /  1017.8 hPa NE 5 mph /  8.0 km/h 15 mph /  24.1 km/h 57 % 0 in /  0.0 mm
19:42 76.5 °F /  24.7 °C 59.2 °F /  15.1 °C 30.1 in /  1017.8 hPa NNE 12 mph /  19.3 km/h 15 mph /  24.1 km/h 55 % 0 in /  0.0 mm
19:47 76.5 °F /  24.7 °C 59.5 °F /  15.3 °C 30.1 in /  1017.8 hPa NNW 9 mph /  14.5 km/h 18 mph /  29.0 km/h 56 % 0 in /  0.0 mm
19:52 76.3 °F /  24.6 °C 59 °F /  15.0 °C 30.1 in /  1017.8 hPa NE 8 mph /  12.9 km/h 18 mph /  29.0 km/h 55 % 0 in /  0.0 mm
20:02 75.9 °F /  24.4 °C 59.2 °F /  15.1 °C 30.1 in /  1017.8 hPa NNE 7 mph /  11.3 km/h 16 mph /  25.7 km/h 56 % 0 in /  0.0 mm
20:12 75.4 °F /  24.1 °C 58.6 °F /  14.8 °C 30.1 in /  1017.8 hPa NE 6 mph /  9.7 km/h 16 mph /  25.7 km/h 56 % 0 in /  0.0 mm
20:17 75.2 °F /  24.0 °C 58.5 °F /  14.7 °C 30.1 in /  1017.8 hPa NE 7 mph /  11.3 km/h 15 mph /  24.1 km/h 56 % 0 in /  0.0 mm
20:22 75 °F /  23.9 °C 58.8 °F /  14.9 °C 30.1 in /  1017.8 hPa NNE 7 mph /  11.3 km/h 15 mph /  24.1 km/h 57 % 0 in /  0.0 mm
20:32 74.7 °F /  23.7 °C 57.9 °F /  14.4 °C 30.1 in /  1017.8 hPa NNE 6 mph /  9.7 km/h 15 mph /  24.1 km/h 56 % 0 in /  0.0 mm
20:42 74.1 °F /  23.4 °C 56.8 °F /  13.8 °C 30.1 in /  1017.8 hPa NE 8 mph /  12.9 km/h 15 mph /  24.1 km/h 55 % 0 in /  0.0 mm
20:47 73.9 °F /  23.3 °C 57.2 °F /  14.0 °C 30.1 in /  1017.8 hPa NNE 11 mph /  17.7 km/h 14 mph /  22.5 km/h 56 % 0 in /  0.0 mm
20:52 73.8 °F /  23.2 °C 57 °F /  13.9 °C 30.1 in /  1017.8 hPa NNE 6 mph /  9.7 km/h 14 mph /  22.5 km/h 56 % 0 in /  0.0 mm
20:57 73.4 °F /  23.0 °C 56.7 °F /  13.7 °C 30.1 in /  1017.8 hPa NNE 8 mph /  12.9 km/h 12 mph /  19.3 km/h 56 % 0 in /  0.0 mm
21:02 73 °F /  22.8 °C 56.5 °F /  13.6 °C 30.1 in /  1017.8 hPa North 13 mph /  20.9 km/h 13 mph /  20.9 km/h 56 % 0 in /  0.0 mm
21:07 72.9 °F /  22.7 °C 56.7 °F /  13.7 °C 30.1 in /  1017.8 hPa ENE 3 mph /  4.8 km/h 11 mph /  17.7 km/h 57 % 0 in /  0.0 mm
21:12 72.3 °F /  22.4 °C 56.3 °F /  13.5 °C 30.1 in /  1017.8 hPa NNE 2 mph /  3.2 km/h 11 mph /  17.7 km/h 57 % 0 in /  0.0 mm
21:17 72 °F /  22.2 °C 55.9 °F /  13.3 °C 30.1 in /  1017.8 hPa North 9 mph /  14.5 km/h 13 mph /  20.9 km/h 57 % 0 in /  0.0 mm
21:22 71.6 °F /  22.0 °C 56.1 °F /  13.4 °C 30.1 in /  1017.8 hPa NNE 4 mph /  6.4 km/h 13 mph /  20.9 km/h 58 % 0 in /  0.0 mm
21:32 70.5 °F /  21.4 °C 55.6 °F /  13.1 °C 30.1 in /  1017.8 hPa NE 5 mph /  8.0 km/h 10 mph /  16.1 km/h 59 % 0 in /  0.0 mm
21:47 69.8 °F /  21.0 °C 55.8 °F /  13.2 °C 30.1 in /  1017.8 hPa NNE 1 mph /  1.6 km/h 6 mph /  9.7 km/h 61 % 0 in /  0.0 mm
21:52 69.3 °F /  20.7 °C 56.1 °F /  13.4 °C 30.1 in /  1017.8 hPa NNE 3 mph /  4.8 km/h 6 mph /  9.7 km/h 63 % 0 in /  0.0 mm
21:57 68.5 °F /  20.3 °C 55.9 °F /  13.3 °C 30.1 in /  1017.8 hPa NNE 5 mph /  8.0 km/h 8 mph /  12.9 km/h 64 % 0 in /  0.0 mm
22:02 68.2 °F /  20.1 °C 55.9 °F /  13.3 °C 30.1 in /  1017.8 hPa NNE 4 mph /  6.4 km/h 8 mph /  12.9 km/h 65 % 0 in /  0.0 mm
22:12 67.6 °F /  19.8 °C 55.4 °F /  13.0 °C 30.1 in /  1018.2 hPa NNE 5 mph /  8.0 km/h 8 mph /  12.9 km/h 65 % 0 in /  0.0 mm
22:17 67.3 °F /  19.6 °C 55 °F /  12.8 °C 30.1 in /  1018.2 hPa NE 8 mph /  12.9 km/h 9 mph /  14.5 km/h 65 % 0 in /  0.0 mm
22:22 67.3 °F /  19.6 °C 55 °F /  12.8 °C 30.1 in /  1018.2 hPa NE 4 mph /  6.4 km/h 9 mph /  14.5 km/h 65 % 0 in /  0.0 mm
22:32 67.3 °F /  19.6 °C 55 °F /  12.8 °C 30.1 in /  1018.2 hPa NNE 3 mph /  4.8 km/h 11 mph /  17.7 km/h 65 % 0 in /  0.0 mm
22:37 66.9 °F /  19.4 °C 54.9 °F /  12.7 °C 30.1 in /  1018.2 hPa NE 3 mph /  4.8 km/h 9 mph /  14.5 km/h 65 % 0 in /  0.0 mm
22:42 66.6 °F /  19.2 °C 54.9 °F /  12.7 °C 30.1 in /  1018.2 hPa NNE 4 mph /  6.4 km/h 9 mph /  14.5 km/h 66 % 0 in /  0.0 mm
22:47 66.6 °F /  19.2 °C 54.9 °F /  12.7 °C 30.1 in /  1018.2 hPa NE 5 mph /  8.0 km/h 9 mph /  14.5 km/h 66 % 0 in /  0.0 mm
22:52 66.4 °F /  19.1 °C 54.7 °F /  12.6 °C 30.1 in /  1018.5 hPa NNE 4 mph /  6.4 km/h 8 mph /  12.9 km/h 66 % 0 in /  0.0 mm
22:57 66.6 °F /  19.2 °C 54.9 °F /  12.7 °C 30.1 in /  1018.5 hPa NE 4 mph /  6.4 km/h 8 mph /  12.9 km/h 66 % 0 in /  0.0 mm
23:02 66.2 °F /  19.0 °C 54.9 °F /  12.7 °C 30.1 in /  1018.5 hPa NE 4 mph /  6.4 km/h 8 mph /  12.9 km/h 67 % 0 in /  0.0 mm
23:12 65.7 °F /  18.7 °C 54.9 °F /  12.7 °C 30.1 in /  1018.5 hPa NNE 4 mph /  6.4 km/h 8 mph /  12.9 km/h 68 % 0 in /  0.0 mm
23:22 64.9 °F /  18.3 °C 54.5 °F /  12.5 °C 30.1 in /  1018.5 hPa NNE 2 mph /  3.2 km/h 8 mph /  12.9 km/h 69 % 0 in /  0.0 mm
23:27 64.6 °F /  18.1 °C 54.5 °F /  12.5 °C 30.1 in /  1018.5 hPa NNW 1 mph /  1.6 km/h 7 mph /  11.3 km/h 70 % 0 in /  0.0 mm
23:32 64.2 °F /  17.9 °C 54.7 °F /  12.6 °C 30.1 in /  1018.2 hPa NNE 1 mph /  1.6 km/h 7 mph /  11.3 km/h 71 % 0 in /  0.0 mm
23:37 64 °F /  17.8 °C 54.5 °F /  12.5 °C 30.1 in /  1018.5 hPa NE 1 mph /  1.6 km/h 4 mph /  6.4 km/h 71 % 0 in /  0.0 mm
23:42 63.9 °F /  17.7 °C 54.3 °F /  12.4 °C 30.1 in /  1018.5 hPa Calm   4 mph /  6.4 km/h 71 % 0 in /  0.0 mm
23:47 64 °F /  17.8 °C 54.5 °F /  12.5 °C 30.1 in /  1018.5 hPa NE 2 mph /  3.2 km/h 4 mph /  6.4 km/h 71 % 0 in /  0.0 mm
23:52 64.4 °F /  18.0 °C 54.3 °F /  12.4 °C 30.1 in /  1018.5 hPa NE 4 mph /  6.4 km/h 4 mph /  6.4 km/h 70 % 0 in /  0.0 mm
Meteo18
Compliments of Weather Underground - 4 mb

Script developed by  Jim McMurry - jmcmurry@mwt.net Adapted for the template by  Wim van der Kuil - Leuven-Template.eu

You find our weather info also at:

European Weather Network

Weather Underground

Equipment we use:

Weather-station
Davis Vue

Weather-program
Meteohub

Weather-server
Raspberry PI 2 B+

Provider
1 and 1

Davis Vue

Meteohub

Raspberry PI 2 B+

1 and 1